Time;durP1;ratioP1;P1;durP2;ratioP2;P2;SDS_P1;SDS_P2;PMS_P1;PMS_P2;Temp;Humidity;BMP_temperature;BMP_pressure;BME280_temperature;BME280_humidity;BME280_pressure;Samples;Min_cycle;Max_cycle;Signal;HPM_P1;HPM_P2
2022/11/12 00:00:31;;;;;;;8.23;6.38;;;8.40;99.90;;;;;;5137442;27;20051;-70
2022/11/12 00:02:57;;;;;;;9.43;7.13;;;8.60;99.90;;;;;;5155464;27;20117;-70
2022/11/12 00:05:24;;;;;;;10.00;6.97;;;8.30;99.90;;;;;;5155066;27;20558;-70
2022/11/12 00:07:49;;;;;;;10.10;6.43;;;8.10;99.90;;;;;;5155130;27;20103;-70
2022/11/12 00:10:16;;;;;;;9.25;7.00;;;8.20;99.90;;;;;;5154521;27;20034;-70
2022/11/12 00:12:41;;;;;;;9.18;6.88;;;8.00;99.90;;;;;;5137128;27;20069;-70
2022/11/12 00:15:08;;;;;;;8.68;6.93;;;8.20;99.90;;;;;;5154945;27;20471;-70
2022/11/12 00:17:33;;;;;;;11.23;7.70;;;8.00;99.90;;;;;;5154841;27;20579;-70
2022/11/12 00:19:59;;;;;;;10.02;7.40;;;8.00;99.90;;;;;;5136092;27;20058;-70
2022/11/12 00:22:25;;;;;;;12.82;7.75;;;9.00;99.90;;;;;;5154805;27;20038;-70
2022/11/12 00:24:51;;;;;;;13.25;8.43;;;8.50;99.90;;;;;;5155091;27;20454;-70
2022/11/12 00:27:17;;;;;;;10.00;7.60;;;8.50;99.90;;;;;;5155135;27;20057;-70
2022/11/12 00:29:42;;;;;;;9.73;7.35;;;8.00;99.90;;;;;;5155436;27;20058;-70
2022/11/12 00:32:09;;;;;;;10.35;7.35;;;8.20;99.90;;;;;;5154718;27;20091;-70
2022/11/12 00:34:35;;;;;;;10.80;7.75;;;8.30;99.90;;;;;;5154876;27;20039;-70
2022/11/12 00:37:01;;;;;;;10.23;6.70;;;8.20;99.90;;;;;;5136371;27;20124;-70
2022/11/12 00:39:27;;;;;;;11.23;7.25;;;8.30;99.90;;;;;;5136220;27;20045;-71
2022/11/12 00:41:53;;;;;;;11.35;7.50;;;8.10;99.90;;;;;;5154532;27;20038;-70
2022/11/12 00:44:19;;;;;;;9.65;7.43;;;8.30;99.90;;;;;;5136480;27;20047;-70
2022/11/12 00:46:45;;;;;;;10.40;7.80;;;8.40;99.90;;;;;;5154811;27;20067;-70
2022/11/12 00:49:11;;;;;;;10.80;7.32;;;8.20;99.90;;;;;;5136087;27;20043;-70
2022/11/12 00:51:37;;;;;;;10.60;7.20;;;8.00;99.90;;;;;;5154623;27;20042;-70
2022/11/12 00:54:04;;;;;;;8.57;6.95;;;8.00;99.90;;;;;;5154576;27;20058;-70
2022/11/12 00:56:30;;;;;;;11.95;7.88;;;8.00;99.90;;;;;;5154895;27;20091;-70
2022/11/12 00:58:57;;;;;;;10.85;7.70;;;8.30;99.90;;;;;;5136492;27;20082;-70
2022/11/12 01:01:23;;;;;;;11.43;7.75;;;8.40;99.90;;;;;;5154601;27;20046;-70
2022/11/12 01:03:49;;;;;;;9.90;7.82;;;8.00;99.90;;;;;;5136192;27;20051;-70
2022/11/12 01:06:19;;;;;;;11.15;7.75;;;7.90;99.90;;;;;;5154501;27;20054;-70
2022/11/12 01:08:47;;;;;;;10.93;7.47;;;8.20;99.90;;;;;;5154560;27;20145;-70
2022/11/12 01:11:22;;;;;;;10.38;7.22;;;7.90;99.90;;;;;;5154283;27;20117;-70
2022/11/12 01:13:57;;;;;;;9.18;7.20;;;8.70;99.90;;;;;;5136335;27;20046;-70
2022/11/12 01:16:31;;;;;;;11.00;7.80;;;8.40;99.90;;;;;;5154826;27;20087;-70
2022/11/12 01:18:58;;;;;;;10.75;7.40;;;7.60;99.90;;;;;;5155087;27;20431;-70
2022/11/12 01:21:27;;;;;;;11.88;8.07;;;8.00;99.90;;;;;;5154764;27;20038;-70
2022/11/12 01:23:53;;;;;;;10.98;8.13;;;8.10;99.90;;;;;;5155247;27;20398;-70
2022/11/12 01:26:21;;;;;;;10.98;8.00;;;8.10;99.90;;;;;;5119318;27;20043;-70
2022/11/12 01:28:46;;;;;;;10.85;7.78;;;8.00;99.90;;;;;;5154094;27;20563;-70
2022/11/12 01:31:20;;;;;;;10.63;8.05;;;7.80;99.90;;;;;;5158350;27;20055;-70
2022/11/12 01:33:49;;;;;;;9.95;8.00;;;8.20;99.90;;;;;;5158526;27;20046;-70
2022/11/12 01:36:16;;;;;;;11.02;7.68;;;8.20;99.90;;;;;;5158527;27;20486;-70
2022/11/12 01:38:44;;;;;;;13.45;7.50;;;7.80;99.90;;;;;;5140112;27;20060;-70
2022/11/12 01:41:12;;;;;;;13.10;8.20;;;8.20;99.90;;;;;;5157881;27;20134;-70
2022/11/12 01:43:38;;;;;;;12.07;7.78;;;7.80;99.90;;;;;;5157936;27;20038;-70
2022/11/12 01:46:17;;;;;;;10.25;8.45;;;7.60;99.90;;;;;;5105882;27;20054;-70
2022/11/12 01:48:58;;;;;;;10.15;8.20;;;8.30;99.90;;;;;;5158078;27;20446;-70
2022/11/12 01:51:30;;;;;;;12.00;7.95;;;8.10;99.90;;;;;;5139840;27;20163;-70
2022/11/12 01:53:59;;;;;;;11.00;8.05;;;8.20;99.90;;;;;;5158429;27;20039;-70
2022/11/12 01:56:28;;;;;;;11.65;8.05;;;7.90;99.90;;;;;;5158133;27;20039;-70
2022/11/12 01:59:04;;;;;;;12.10;8.23;;;7.90;99.90;;;;;;5158320;27;20039;-70
2022/11/12 02:01:30;;;;;;;10.65;7.20;;;8.10;99.90;;;;;;5139572;27;20043;-70
2022/11/12 02:03:56;;;;;;;13.00;8.35;;;7.70;99.90;;;;;;5157954;27;20039;-70
2022/11/12 02:06:23;;;;;;;12.80;8.63;;;8.00;99.90;;;;;;5157828;27;20091;-70
2022/11/12 02:08:50;;;;;;;11.55;8.77;;;8.40;99.90;;;;;;5157845;27;20043;-70
2022/11/12 02:11:18;;;;;;;11.93;7.95;;;8.10;99.90;;;;;;5157201;27;20546;-70
2022/11/12 02:14:03;;;;;;;11.73;8.57;;;8.00;99.90;;;;;;5157773;27;20043;-70
2022/11/12 02:16:41;;;;;;;11.98;8.32;;;8.00;99.90;;;;;;5158188;27;20053;-70
2022/11/12 02:19:10;;;;;;;13.50;8.82;;;7.60;99.90;;;;;;5139530;27;20450;-70
2022/11/12 02:21:36;;;;;;;10.43;8.05;;;7.70;99.90;;;;;;5157566;27;20074;-70
2022/11/12 02:24:03;;;;;;;12.60;8.15;;;8.40;99.90;;;;;;5157559;27;20558;-70
2022/11/12 02:26:35;;;;;;;13.38;8.65;;;7.90;99.90;;;;;;5157783;27;20525;-70
2022/11/12 02:29:02;;;;;;;11.93;8.43;;;7.60;99.90;;;;;;5157392;27;20058;-70
2022/11/12 02:31:28;;;;;;;11.50;8.38;;;7.60;99.90;;;;;;5139182;27;20063;-70
2022/11/12 02:33:53;;;;;;;12.70;8.73;;;8.00;99.90;;;;;;5157532;27;20470;-70
2022/11/12 02:36:19;;;;;;;12.32;8.85;;;8.00;99.90;;;;;;5139325;27;20430;-70
2022/11/12 02:38:45;;;;;;;13.00;9.20;;;8.00;99.90;;;;;;5157360;27;20539;-70
2022/11/12 02:41:11;;;;;;;13.07;9.23;;;7.70;99.90;;;;;;5155904;27;20043;-70
2022/11/12 02:43:36;;;;;;;11.50;9.23;;;7.50;99.90;;;;;;5157229;27;20038;-70
2022/11/12 02:46:02;;;;;;;14.25;8.73;;;8.00;99.90;;;;;;5138773;27;20121;-70
2022/11/12 02:48:28;;;;;;;12.90;9.32;;;7.70;99.90;;;;;;5157447;27;20038;-70
2022/11/12 02:50:53;;;;;;;11.80;8.27;;;8.10;99.90;;;;;;5156995;27;20050;-70
2022/11/12 02:53:20;;;;;;;11.45;8.80;;;8.00;99.90;;;;;;5157176;27;20053;-70
2022/11/12 02:55:45;;;;;;;11.93;8.98;;;7.90;99.90;;;;;;5138643;27;20060;-70
2022/11/12 02:58:11;;;;;;;13.38;10.07;;;8.00;99.90;;;;;;5157019;27;20418;-70
2022/11/12 03:00:37;;;;;;;13.13;8.80;;;7.50;99.90;;;;;;5156792;27;20049;-70
2022/11/12 03:03:02;;;;;;;12.30;8.93;;;7.70;99.90;;;;;;5156748;27;20043;-70
2022/11/12 03:05:31;;;;;;;12.75;9.77;;;7.50;99.90;;;;;;5156407;27;20038;-70
2022/11/12 03:08:05;;;;;;;14.32;9.68;;;7.40;99.90;;;;;;5156715;27;20383;-70
2022/11/12 03:10:31;;;;;;;13.48;9.80;;;7.40;99.90;;;;;;5156032;27;20482;-70
2022/11/12 03:12:59;;;;;;;11.60;8.77;;;7.40;99.90;;;;;;5156974;27;20042;-70
2022/11/12 03:15:25;;;;;;;13.80;8.77;;;7.70;99.90;;;;;;5138053;27;20046;-70
2022/11/12 03:17:51;;;;;;;14.38;9.55;;;7.80;99.90;;;;;;5156844;27;20054;-70
2022/11/12 03:20:17;;;;;;;12.40;9.48;;;7.60;99.90;;;;;;5156511;27;20362;-70
2022/11/12 03:22:53;;;;;;;12.98;9.60;;;7.30;99.90;;;;;;5121014;27;20048;-70
2022/11/12 03:25:18;;;;;;;13.70;10.40;;;7.50;99.90;;;;;;5156425;27;20035;-70
2022/11/12 03:27:44;;;;;;;13.65;9.55;;;7.90;99.90;;;;;;5137658;27;20056;-70
2022/11/12 03:30:10;;;;;;;14.82;10.27;;;7.20;99.90;;;;;;5156375;27;20039;-70
2022/11/12 03:32:36;;;;;;;14.77;10.57;;;7.30;99.90;;;;;;5137729;27;20469;-70
2022/11/12 03:35:01;;;;;;;13.30;10.57;;;7.20;99.90;;;;;;5137755;27;20091;-70
2022/11/12 03:37:27;;;;;;;14.52;10.63;;;7.20;99.90;;;;;;5156064;27;20086;-70
2022/11/12 03:39:53;;;;;;;16.35;10.98;;;7.80;99.90;;;;;;5155477;27;20425;-70
2022/11/12 03:42:18;;;;;;;12.77;9.98;;;7.30;99.90;;;;;;5137766;27;20225;-70
2022/11/12 03:44:44;;;;;;;14.18;10.40;;;7.40;99.90;;;;;;5155964;27;20035;-70
2022/11/12 03:47:10;;;;;;;15.05;10.40;;;7.20;99.90;;;;;;5156088;27;20133;-70
2022/11/12 03:49:35;;;;;;;14.43;10.15;;;7.90;99.90;;;;;;5137471;27;20065;-70
2022/11/12 03:52:01;;;;;;;13.50;10.18;;;7.60;99.90;;;;;;5155917;27;20387;-70
2022/11/12 03:54:26;;;;;;;15.32;10.00;;;7.30;99.90;;;;;;5155730;27;20442;-70
2022/11/12 03:56:52;;;;;;;12.52;9.95;;;7.50;99.90;;;;;;5156132;27;20115;-70
2022/11/12 03:59:18;;;;;;;12.82;9.77;;;7.90;99.90;;;;;;5155768;27;20359;-70
2022/11/12 04:01:43;;;;;;;13.25;9.82;;;7.50;99.90;;;;;;5155682;27;20524;-70
2022/11/12 04:04:09;;;;;;;13.07;10.32;;;7.90;99.90;;;;;;5155795;27;20043;-70
2022/11/12 04:09:19;;;;;;;15.23;10.10;;;7.10;99.90;;;;;;5155808;27;20051;-70
2022/11/12 04:11:44;;;;;;;16.08;10.68;;;8.20;99.90;;;;;;5155177;27;20046;-70
2022/11/12 04:14:10;;;;;;;12.90;9.80;;;7.30;99.90;;;;;;5155520;27;20034;-70
2022/11/12 04:22:07;;;;;;;14.38;11.07;;;7.10;99.90;;;;;;5156146;27;20076;-70
2022/11/12 04:27:25;;;;;;;13.68;10.35;;;7.20;99.90;;;;;;5155319;27;20482;-70
2022/11/12 04:32:39;;;;;;;13.60;10.93;;;7.10;99.90;;;;;;5137217;27;20054;-70
2022/11/12 04:35:06;;;;;;;14.60;10.15;;;7.30;99.90;;;;;;5155049;27;20496;-70
2022/11/12 04:37:43;;;;;;;12.77;9.75;;;6.90;99.90;;;;;;5155117;27;20497;-70
2022/11/12 04:46:02;;;;;;;12.45;10.13;;;7.40;99.90;;;;;;5155527;27;20080;-70
2022/11/12 04:48:28;;;;;;;12.38;9.77;;;6.90;99.90;;;;;;5155403;27;20435;-70
2022/11/12 04:51:00;;;;;;;11.15;9.05;;;6.90;99.90;;;;;;5136903;27;20047;-70
2022/11/12 04:53:26;;;;;;;12.13;8.98;;;7.80;99.90;;;;;;5155212;27;20058;-70
2022/11/12 04:55:54;;;;;;;11.18;8.57;;;7.10;99.90;;;;;;5155263;27;20394;-70
2022/11/12 04:58:20;;;;;;;13.57;9.45;;;7.80;99.90;;;;;;5155185;27;20053;-70
2022/11/12 05:00:46;;;;;;;11.70;9.02;;;7.20;99.90;;;;;;5155167;27;20046;-70
2022/11/12 05:03:12;;;;;;;13.15;8.13;;;7.10;99.90;;;;;;5154920;27;20520;-70
2022/11/12 05:05:38;;;;;;;10.52;8.63;;;7.20;99.90;;;;;;5157836;27;20047;-70
2022/11/12 05:08:03;;;;;;;13.80;9.30;;;6.80;99.90;;;;;;5159476;27;20047;-70
2022/11/12 05:10:30;;;;;;;13.20;8.75;;;6.80;99.90;;;;;;5158626;27;20192;-71
2022/11/12 05:12:56;;;;;;;12.32;8.93;;;6.80;99.90;;;;;;5140740;27;20140;-70
2022/11/12 05:15:21;;;;;;;11.10;9.05;;;7.10;99.90;;;;;;5159017;27;20035;-70
2022/11/12 05:17:47;;;;;;;11.77;8.13;;;7.10;99.90;;;;;;5159112;27;20081;-70
2022/11/12 05:20:14;;;;;;;16.02;8.05;;;6.80;99.90;;;;;;5159517;27;20043;-71
2022/11/12 05:22:40;;;;;;;10.25;8.35;;;6.80;99.90;;;;;;5158965;27;20043;-71
2022/11/12 05:25:07;;;;;;;12.63;8.63;;;7.60;99.90;;;;;;5158906;27;20047;-70
2022/11/12 05:27:33;;;;;;;11.18;7.95;;;6.80;99.90;;;;;;5140199;27;20415;-70
2022/11/12 05:29:58;;;;;;;9.77;6.85;;;7.40;99.90;;;;;;5140888;27;20053;-70
2022/11/12 05:32:25;;;;;;;9.45;7.50;;;6.80;99.90;;;;;;5123239;27;20039;-70
2022/11/12 05:34:51;;;;;;;9.98;7.45;;;6.70;99.90;;;;;;5140275;27;20043;-70
2022/11/12 05:37:17;;;;;;;11.35;7.35;;;6.80;99.90;;;;;;5140665;27;20371;-70
2022/11/12 05:39:43;;;;;;;11.18;7.78;;;7.00;99.90;;;;;;5158612;27;20107;-70
2022/11/12 05:42:09;;;;;;;8.95;6.95;;;7.20;99.90;;;;;;5158006;27;20054;-71
2022/11/12 05:44:35;;;;;;;10.90;7.15;;;6.80;99.90;;;;;;5158859;27;20061;-70
2022/11/12 05:47:00;;;;;;;11.60;7.15;;;7.00;99.90;;;;;;5158625;27;20039;-70
2022/11/12 05:49:26;;;;;;;12.13;7.13;;;6.70;99.90;;;;;;5158752;27;20134;-70
2022/11/12 05:51:51;;;;;;;9.43;6.80;;;7.00;99.90;;;;;;5140031;27;20039;-70
2022/11/12 05:54:17;;;;;;;10.00;6.40;;;7.20;99.90;;;;;;5139969;27;20129;-70
2022/11/12 05:56:44;;;;;;;10.02;6.70;;;7.20;99.90;;;;;;5139903;27;20047;-70
2022/11/12 05:59:12;;;;;;;11.27;6.97;;;6.60;99.90;;;;;;5122905;27;20074;-70
2022/11/12 06:01:45;;;;;;;10.93;6.80;;;6.60;99.90;;;;;;5139692;27;20046;-70
2022/11/12 06:04:12;;;;;;;10.77;7.15;;;6.90;99.90;;;;;;5158761;27;20039;-70
2022/11/12 06:06:39;;;;;;;8.98;7.03;;;7.10;99.90;;;;;;5122660;27;20130;-70
2022/11/12 06:09:06;;;;;;;9.20;6.70;;;7.60;99.90;;;;;;5158051;27;20472;-70
2022/11/12 06:11:32;;;;;;;8.60;6.15;;;6.60;99.90;;;;;;5139036;27;20126;-70
2022/11/12 06:13:59;;;;;;;9.48;6.32;;;6.70;99.90;;;;;;5157871;27;20031;-70
2022/11/12 06:16:24;;;;;;;8.23;6.20;;;7.00;99.90;;;;;;5156757;27;20038;-70
2022/11/12 06:18:50;;;;;;;9.23;6.35;;;7.00;99.90;;;;;;5157880;27;20043;-70
2022/11/12 06:21:19;;;;;;;9.57;6.15;;;7.10;99.90;;;;;;5157860;27;20047;-70
2022/11/12 06:23:56;;;;;;;10.52;6.93;;;6.60;99.90;;;;;;5158136;27;20039;-70
2022/11/12 06:26:24;;;;;;;8.75;6.35;;;7.20;99.90;;;;;;5139309;27;20393;-70
2022/11/12 06:28:50;;;;;;;8.93;5.93;;;6.90;99.90;;;;;;5138995;27;20435;-70
2022/11/12 06:31:17;;;;;;;8.63;6.03;;;6.40;99.90;;;;;;5157675;27;20107;-70
2022/11/12 06:33:44;;;;;;;7.38;5.22;;;5.70;99.90;;;;;;5157500;27;20046;-71
2022/11/12 06:36:12;;;;;;;9.32;5.47;;;6.60;99.90;;;;;;5157730;27;20125;-71
2022/11/12 06:38:39;;;;;;;7.60;6.45;;;6.90;99.90;;;;;;5139056;27;20130;-70
2022/11/12 06:41:06;;;;;;;7.90;5.70;;;6.70;99.90;;;;;;5138676;27;20039;-70
2022/11/12 06:43:33;;;;;;;7.78;5.68;;;6.60;99.90;;;;;;5157444;27;20069;-71
2022/11/12 06:46:03;;;;;;;9.80;6.25;;;6.70;99.90;;;;;;5157342;27;20050;-70
2022/11/12 06:48:29;;;;;;;7.43;5.18;;;6.30;99.90;;;;;;5157340;27;20131;-70
2022/11/12 06:50:56;;;;;;;9.60;6.13;;;6.60;99.90;;;;;;5121792;27;20198;-71
2022/11/12 06:53:22;;;;;;;8.40;5.93;;;6.70;99.90;;;;;;5157233;27;20106;-70
2022/11/12 06:55:48;;;;;;;9.48;6.35;;;6.60;99.90;;;;;;5138956;27;20087;-71
2022/11/12 06:58:13;;;;;;;10.05;6.40;;;6.70;99.90;;;;;;5121622;27;20054;-71
2022/11/12 07:00:39;;;;;;;8.75;5.93;;;6.70;99.90;;;;;;5156949;27;20046;-71
2022/11/12 07:03:06;;;;;;;7.72;6.00;;;6.50;99.90;;;;;;5157057;27;20466;-70
2022/11/12 07:05:36;;;;;;;9.80;6.05;;;7.00;99.90;;;;;;5138829;27;20035;-70
2022/11/12 07:08:03;;;;;;;10.20;6.97;;;6.70;99.90;;;;;;5157160;27;20038;-71
2022/11/12 07:10:29;;;;;;;10.05;5.60;;;6.50;99.90;;;;;;5138163;27;20142;-71
2022/11/12 07:12:54;;;;;;;8.35;5.97;;;6.50;99.90;;;;;;5156504;27;20121;-70
2022/11/12 07:15:20;;;;;;;9.00;6.72;;;6.90;99.90;;;;;;5156827;27;20048;-71
2022/11/12 07:17:45;;;;;;;8.60;6.45;;;6.60;99.90;;;;;;5157046;27;20074;-70
2022/11/12 07:20:12;;;;;;;10.25;6.20;;;7.00;99.90;;;;;;5156741;27;20046;-70
2022/11/12 07:22:38;;;;;;;9.98;7.43;;;6.30;99.90;;;;;;5156471;27;20478;-71
2022/11/12 07:25:04;;;;;;;9.38;7.35;;;6.50;99.90;;;;;;5156537;27;20038;-70
2022/11/12 07:27:30;;;;;;;7.85;6.07;;;6.30;99.90;;;;;;5156141;27;20439;-71
2022/11/12 07:29:56;;;;;;;9.15;5.82;;;6.60;99.90;;;;;;5138079;27;20494;-70
2022/11/12 07:32:22;;;;;;;9.18;6.43;;;6.40;99.90;;;;;;5156498;27;20087;-70
2022/11/12 07:34:49;;;;;;;10.65;7.32;;;7.00;99.90;;;;;;5137965;27;20047;-70
2022/11/12 07:37:15;;;;;;;10.20;8.38;;;6.50;99.90;;;;;;5156747;27;20054;-70
2022/11/12 07:39:41;;;;;;;9.07;8.10;;;6.80;99.90;;;;;;5137939;27;20098;-71
2022/11/12 07:42:06;;;;;;;10.65;6.85;;;6.70;99.90;;;;;;5155693;27;20129;-71
2022/11/12 07:44:32;;;;;;;8.27;6.60;;;6.50;99.90;;;;;;5156239;27;20043;-71
2022/11/12 07:46:58;;;;;;;9.65;6.85;;;7.00;99.90;;;;;;5156245;27;20111;-70
2022/11/12 07:49:23;;;;;;;10.25;6.57;;;6.50;99.90;;;;;;5156138;27;20038;-70
2022/11/12 07:51:49;;;;;;;12.52;6.95;;;6.80;99.90;;;;;;5120843;27;20070;-70
2022/11/12 07:54:15;;;;;;;9.70;6.22;;;6.80;99.90;;;;;;5155975;27;20060;-70
2022/11/12 07:56:41;;;;;;;9.15;6.50;;;6.50;99.90;;;;;;5156034;27;20104;-70
2022/11/12 07:59:06;;;;;;;10.70;6.82;;;7.30;99.90;;;;;;5155741;27;20049;-70
2022/11/12 08:01:34;;;;;;;8.35;6.30;;;6.70;99.90;;;;;;5137500;27;20398;-70
2022/11/12 08:04:02;;;;;;;11.63;6.13;;;7.10;99.90;;;;;;5137509;27;20124;-70
2022/11/12 08:06:29;;;;;;;8.57;6.57;;;6.60;99.90;;;;;;5155729;27;20045;-70
2022/11/12 08:08:56;;;;;;;9.57;6.88;;;7.50;99.90;;;;;;5155664;27;20047;-71
2022/11/12 08:11:23;;;;;;;10.15;6.35;;;6.70;99.90;;;;;;5136902;27;20517;-71
2022/11/12 08:13:49;;;;;;;9.65;6.43;;;6.80;99.90;;;;;;5155499;27;20114;-70
2022/11/12 08:16:15;;;;;;;8.55;6.05;;;7.20;99.90;;;;;;5155814;27;20049;-70
2022/11/12 08:18:42;;;;;;;8.65;6.20;;;7.00;99.90;;;;;;5137252;27;20050;-70
2022/11/12 08:21:11;;;;;;;8.68;5.70;;;6.90;99.90;;;;;;5155481;27;20053;-70
2022/11/12 08:23:36;;;;;;;10.02;6.18;;;7.20;99.90;;;;;;5137257;27;20050;-70
2022/11/12 08:26:05;;;;;;;11.85;7.30;;;7.20;99.90;;;;;;5155419;27;20046;-70
2022/11/12 08:28:33;;;;;;;14.38;7.25;;;7.20;99.90;;;;;;5155299;27;20066;-70
2022/11/12 08:31:28;;;;;;;16.20;8.13;;;7.30;99.90;;;;;;5155393;27;20053;-70
2022/11/12 08:33:54;;;;;;;18.30;8.27;;;7.60;99.90;;;;;;5132477;27;20054;-71
2022/11/12 08:36:19;;;;;;;23.88;8.93;;;7.10;99.90;;;;;;5137063;27;20057;-70
2022/11/12 08:38:45;;;;;;;31.10;10.82;;;7.60;99.90;;;;;;5154602;27;20050;-71
2022/11/12 08:41:13;;;;;;;46.50;9.70;;;6.90;99.90;;;;;;5154956;27;20034;-71
2022/11/12 08:43:40;;;;;;;44.42;11.13;;;7.40;99.90;;;;;;5137146;27;20038;-70
2022/11/12 08:46:05;;;;;;;49.17;10.73;;;7.60;99.90;;;;;;5155369;27;20043;-71
2022/11/12 08:48:33;;;;;;;55.22;11.10;;;7.70;99.90;;;;;;5155376;27;20553;-69
2022/11/12 08:51:03;;;;;;;35.28;10.32;;;7.20;99.90;;;;;;5155319;27;20125;-70
2022/11/12 08:53:29;;;;;;;37.75;11.20;;;7.00;99.90;;;;;;5155260;27;20043;-70
2022/11/12 08:55:55;;;;;;;25.63;10.43;;;7.30;99.90;;;;;;5155186;27;20076;-70
2022/11/12 08:58:22;;;;;;;35.10;10.60;;;7.40;99.90;;;;;;5121992;28;20464;-70
2022/11/12 09:00:49;;;;;;;26.00;9.15;;;7.40;99.90;;;;;;5116463;28;20100;-70
2022/11/12 09:03:18;;;;;;;31.25;10.02;;;7.30;99.90;;;;;;5116411;28;20043;-72
2022/11/12 09:05:43;;;;;;;72.47;14.50;;;7.20;99.90;;;;;;5116420;28;20051;-72
2022/11/12 09:08:15;;;;;;;77.30;16.77;;;7.40;99.90;;;;;;5134469;28;20130;-71
2022/11/12 09:10:40;;;;;;;65.57;15.70;;;7.40;99.90;;;;;;5134048;28;20043;-71
2022/11/12 09:13:06;;;;;;;75.25;15.30;;;7.20;99.90;;;;;;5134618;28;20372;-71
2022/11/12 09:15:32;;;;;;;69.00;14.18;;;7.40;99.90;;;;;;5134321;28;20080;-71
2022/11/12 09:18:02;;;;;;;105.88;15.43;;;7.50;99.90;;;;;;5134428;28;20040;-72
2022/11/12 09:20:29;;;;;;;60.60;12.10;;;7.60;99.90;;;;;;5134337;28;20050;-71
2022/11/12 09:23:03;;;;;;;89.32;17.05;;;8.20;99.90;;;;;;5116154;28;20136;-71
2022/11/12 09:25:29;;;;;;;83.70;14.40;;;7.70;99.90;;;;;;5134265;28;20043;-72
2022/11/12 09:27:55;;;;;;;80.93;15.43;;;7.40;99.90;;;;;;5115984;28;20039;-70
2022/11/12 09:30:21;;;;;;;74.20;14.75;;;7.60;99.90;;;;;;5134849;28;20059;-71
2022/11/12 09:32:47;;;;;;;76.80;14.00;;;7.60;99.90;;;;;;5134206;28;20043;-70
2022/11/12 09:35:13;;;;;;;92.75;16.60;;;7.60;99.90;;;;;;5099178;28;20049;-70
2022/11/12 09:37:39;;;;;;;76.47;16.00;;;7.60;99.90;;;;;;5115851;28;20043;-70
2022/11/12 09:40:06;;;;;;;52.15;15.00;;;8.00;99.90;;;;;;5134183;28;20055;-70
2022/11/12 09:42:34;;;;;;;57.22;15.13;;;7.90;99.90;;;;;;5133756;28;20044;-70
2022/11/12 09:45:17;;;;;;;35.15;12.82;;;7.90;99.90;;;;;;5134123;28;20423;-73
2022/11/12 09:47:48;;;;;;;44.55;15.27;;;8.00;99.90;;;;;;5116099;28;20091;-71
2022/11/12 09:50:24;;;;;;;46.38;14.63;;;8.40;99.90;;;;;;5134581;27;20047;-72
2022/11/12 09:52:55;;;;;;;50.33;15.75;;;8.10;99.90;;;;;;5130900;27;20517;-73
2022/11/12 09:55:30;;;;;;;117.30;22.73;;;8.40;99.90;;;;;;5129705;27;20040;-72
2022/11/12 09:57:56;;;;;;;75.95;16.90;;;8.40;99.90;;;;;;5147559;27;20095;-74
2022/11/12 10:00:22;;;;;;;44.13;14.27;;;8.40;99.90;;;;;;5129088;27;20043;-73
2022/11/12 10:02:58;;;;;;;69.45;17.23;;;8.30;99.90;;;;;;5148524;27;20053;-73
2022/11/12 10:05:53;;;;;;;68.10;15.80;;;8.30;99.90;;;;;;5130305;27;20387;-73
2022/11/12 10:08:37;;;;;;;72.53;16.35;;;8.40;99.90;;;;;;5112405;27;20070;-73
2022/11/12 10:12:30;;;;;;;43.90;13.63;;;8.60;99.90;;;;;;5147769;27;20066;-73
2022/11/12 10:14:39;;;;;;;44.03;14.27;;;8.70;99.90;;;;;;5128664;27;20055;-73
2022/11/12 10:17:17;;;;;;;43.15;14.32;;;9.40;99.90;;;;;;5155126;27;20055;-73
2022/11/12 10:20:12;;;;;;;41.63;16.05;;;8.50;99.90;;;;;;5129654;27;20139;-73
2022/11/12 10:22:59;;;;;;;39.25;15.68;;;8.80;99.90;;;;;;5147296;27;20043;-73
2022/11/12 10:25:26;;;;;;;36.53;14.23;;;8.60;99.90;;;;;;5127123;27;20410;-73
2022/11/12 10:27:54;;;;;;;30.77;14.57;;;8.80;99.90;;;;;;5128709;27;20171;-72
2022/11/12 10:30:22;;;;;;;38.38;16.63;;;8.80;99.90;;;;;;5127977;27;20047;-71
2022/11/12 10:32:50;;;;;;;30.80;14.35;;;8.80;99.90;;;;;;5147596;27;20069;-73
2022/11/12 10:35:20;;;;;;;42.33;15.63;;;9.00;99.90;;;;;;5146907;27;20037;-72
2022/11/12 10:37:59;;;;;;;45.92;18.63;;;8.60;99.90;;;;;;5129422;27;20410;-72
2022/11/12 10:40:33;;;;;;;34.55;16.17;;;8.60;99.90;;;;;;5129123;27;20057;-73
2022/11/12 10:43:05;;;;;;;46.72;17.40;;;8.70;99.90;;;;;;5146344;27;20058;-72
2022/11/12 10:45:31;;;;;;;32.75;16.45;;;8.70;99.90;;;;;;5147167;27;20064;-72
2022/11/12 10:47:58;;;;;;;40.90;19.45;;;9.10;99.90;;;;;;5146317;27;20039;-72
2022/11/12 10:50:33;;;;;;;34.10;17.50;;;9.00;99.90;;;;;;5147966;27;20046;-72
2022/11/12 10:53:05;;;;;;;36.05;17.98;;;9.00;99.90;;;;;;5146700;27;20193;-72
2022/11/12 10:55:33;;;;;;;40.88;18.00;;;9.30;99.90;;;;;;5146970;27;20074;-72
2022/11/12 10:58:11;;;;;;;31.67;18.75;;;9.10;99.90;;;;;;5146761;27;20122;-72
2022/11/12 11:00:50;;;;;;;30.08;18.67;;;9.60;99.90;;;;;;5145863;27;20043;-72
2022/11/12 11:03:22;;;;;;;38.25;19.83;;;9.20;99.90;;;;;;5145397;27;20398;-72
2022/11/12 11:05:55;;;;;;;36.03;21.45;;;9.30;99.90;;;;;;5111273;27;20038;-72
2022/11/12 11:08:37;;;;;;;32.22;19.52;;;8.90;99.90;;;;;;5146577;27;20047;-72
2022/11/12 11:11:15;;;;;;;32.88;20.00;;;9.10;99.90;;;;;;5146443;27;20375;-72
2022/11/12 11:13:40;;;;;;;30.70;19.27;;;9.00;99.90;;;;;;5125509;27;20042;-72
2022/11/12 11:16:10;;;;;;;34.33;19.83;;;8.70;99.90;;;;;;5111320;27;20049;-72
2022/11/12 11:18:39;;;;;;;28.48;18.15;;;8.90;99.90;;;;;;5127865;27;20047;-72
2022/11/12 11:21:30;;;;;;;32.00;19.80;;;8.80;99.90;;;;;;5146823;27;20039;-73
2022/11/12 11:24:11;;;;;;;31.35;20.20;;;8.90;99.90;;;;;;5126801;27;20055;-73
2022/11/12 11:26:58;;;;;;;32.95;19.17;;;8.90;99.90;;;;;;5127200;27;20062;-73
2022/11/12 11:29:41;;;;;;;39.20;22.02;;;9.00;99.90;;;;;;5146160;27;20134;-73
2022/11/12 11:32:18;;;;;;;31.25;21.27;;;9.10;99.90;;;;;;5146815;27;20045;-72
2022/11/12 11:35:21;;;;;;;33.60;21.25;;;8.80;99.90;;;;;;5128121;27;20078;-72
2022/11/12 11:38:09;;;;;;;31.40;20.40;;;9.00;99.90;;;;;;5146688;27;20363;-72
2022/11/12 11:40:47;;;;;;;29.95;19.77;;;9.00;99.90;;;;;;5124864;27;20546;-72
2022/11/12 11:43:22;;;;;;;31.02;19.15;;;9.20;99.90;;;;;;5126535;27;20499;-71
2022/11/12 11:45:52;;;;;;;27.05;18.02;;;9.20;99.90;;;;;;5126137;27;20046;-72
2022/11/12 11:48:36;;;;;;;29.13;20.05;;;9.30;99.90;;;;;;5145373;27;20051;-72
2022/11/12 11:51:29;;;;;;;27.25;19.45;;;9.10;99.90;;;;;;5125399;27;20051;-72
2022/11/12 11:54:06;;;;;;;29.35;20.02;;;9.10;99.90;;;;;;5144841;27;20091;-73
2022/11/12 11:56:39;;;;;;;28.42;19.50;;;9.40;99.90;;;;;;5144371;27;20039;-73
2022/11/12 11:59:43;;;;;;;32.83;19.05;;;9.30;99.90;;;;;;5144420;27;20050;-72
2022/11/12 12:02:19;;;;;;;28.20;19.45;;;9.20;99.90;;;;;;5146128;27;20379;-72
2022/11/12 12:05:09;;;;;;;26.65;18.42;;;9.40;99.90;;;;;;5127811;27;20031;-72
2022/11/12 12:08:03;;;;;;;29.10;20.05;;;9.40;99.90;;;;;;5134344;27;20405;-72
2022/11/12 12:10:42;;;;;;;27.10;19.15;;;9.40;99.90;;;;;;5125128;27;20039;-72
2022/11/12 12:13:25;;;;;;;27.65;18.35;;;9.50;99.90;;;;;;5143811;27;20042;-71
2022/11/12 12:16:21;;;;;;;28.23;18.77;;;9.40;99.90;;;;;;5142757;27;20031;-71
2022/11/12 12:19:02;;;;;;;23.95;17.70;;;9.40;99.90;;;;;;5137141;27;20104;-71
2022/11/12 12:21:33;;;;;;;24.90;17.75;;;9.50;99.90;;;;;;5146408;27;20046;-71
2022/11/12 12:24:25;;;;;;;23.85;16.38;;;9.80;99.90;;;;;;5144954;27;20040;-71
2022/11/12 12:27:10;;;;;;;21.67;15.50;;;9.70;99.90;;;;;;5145730;27;20446;-71
2022/11/12 12:29:48;;;;;;;23.55;15.57;;;9.60;99.90;;;;;;5144221;27;20053;-71
2022/11/12 12:32:44;;;;;;;21.20;14.93;;;9.60;99.90;;;;;;5125734;27;20054;-71
2022/11/12 12:35:20;;;;;;;20.35;14.52;;;9.80;99.90;;;;;;5145929;27;20101;-71
2022/11/12 12:38:09;;;;;;;20.08;13.38;;;9.70;99.90;;;;;;5143499;27;20534;-72
2022/11/12 12:40:45;;;;;;;17.35;13.95;;;9.80;99.90;;;;;;5110498;27;20046;-72
2022/11/12 12:43:25;;;;;;;17.00;13.80;;;10.20;99.90;;;;;;5145637;27;20039;-71
2022/11/12 12:45:50;;;;;;;20.63;13.05;;;10.30;99.90;;;;;;5146021;27;20069;-71
2022/11/12 12:48:24;;;;;;;17.83;12.77;;;10.00;99.90;;;;;;5144874;27;20070;-71
2022/11/12 12:50:51;;;;;;;15.15;11.55;;;10.30;99.90;;;;;;5111158;27;20043;-71
2022/11/12 12:53:26;;;;;;;16.80;12.38;;;10.20;99.90;;;;;;5126381;27;20085;-71
2022/11/12 12:56:01;;;;;;;14.48;11.30;;;10.20;99.90;;;;;;5144984;27;20175;-71
2022/11/12 12:58:28;;;;;;;13.00;11.00;;;10.20;99.90;;;;;;5145346;27;20053;-72
2022/11/12 13:01:06;;;;;;;14.35;11.23;;;10.30;99.90;;;;;;5145250;27;20039;-71
2022/11/12 13:04:04;;;;;;;15.95;11.20;;;10.40;99.90;;;;;;5142672;27;20091;-71
2022/11/12 13:06:52;;;;;;;13.70;10.35;;;10.30;99.90;;;;;;5127744;27;20050;-71
2022/11/12 13:09:17;;;;;;;14.27;10.30;;;10.60;99.90;;;;;;5144149;27;20493;-71
2022/11/12 13:14:30;;;;;;;15.68;10.38;;;10.40;99.90;;;;;;5144915;27;20042;-71
2022/11/12 13:17:07;;;;;;;15.43;11.70;;;10.70;99.90;;;;;;5145368;27;20047;-72
2022/11/12 13:19:38;;;;;;;13.73;10.55;;;10.40;99.90;;;;;;5143350;27;20118;-72